sensor_id;sensor_type;location;lat;lon;timestamp;temperature;humidity
28438;DHT22;15667;52.376;9.708;2023-01-29T00:01:58;1.90;99.90
28438;DHT22;15667;52.376;9.708;2023-01-29T00:04:24;1.90;99.90
28438;DHT22;15667;52.376;9.708;2023-01-29T00:06:50;1.90;99.90
28438;DHT22;15667;52.376;9.708;2023-01-29T00:09:18;1.90;99.90
28438;DHT22;15667;52.376;9.708;2023-01-29T00:11:44;2.00;99.90
28438;DHT22;15667;52.376;9.708;2023-01-29T00:14:10;2.00;99.90
28438;DHT22;15667;52.376;9.708;2023-01-29T00:16:36;2.50;99.90
28438;DHT22;15667;52.376;9.708;2023-01-29T00:19:02;1.80;99.90
28438;DHT22;15667;52.376;9.708;2023-01-29T00:21:28;1.80;99.90
28438;DHT22;15667;52.376;9.708;2023-01-29T00:23:57;2.60;99.90
28438;DHT22;15667;52.376;9.708;2023-01-29T00:26:23;1.80;99.90
28438;DHT22;15667;52.376;9.708;2023-01-29T00:28:48;1.90;99.90
28438;DHT22;15667;52.376;9.708;2023-01-29T00:31:20;1.90;99.90
28438;DHT22;15667;52.376;9.708;2023-01-29T00:33:47;2.00;99.90
28438;DHT22;15667;52.376;9.708;2023-01-29T00:36:17;1.90;99.90
28438;DHT22;15667;52.376;9.708;2023-01-29T00:38:43;1.80;99.90
28438;DHT22;15667;52.376;9.708;2023-01-29T00:41:11;1.60;99.90
28438;DHT22;15667;52.376;9.708;2023-01-29T00:43:56;1.80;99.90
28438;DHT22;15667;52.376;9.708;2023-01-29T00:46:41;2.30;99.90
28438;DHT22;15667;52.376;9.708;2023-01-29T00:49:07;1.80;99.90
28438;DHT22;15667;52.376;9.708;2023-01-29T00:51:36;1.90;99.90
28438;DHT22;15667;52.376;9.708;2023-01-29T00:54:03;1.90;99.90
28438;DHT22;15667;52.376;9.708;2023-01-29T00:56:32;2.60;99.90
28438;DHT22;15667;52.376;9.708;2023-01-29T00:58:58;2.10;99.90
28438;DHT22;15667;52.376;9.708;2023-01-29T01:01:27;1.90;99.90
28438;DHT22;15667;52.376;9.708;2023-01-29T01:04:12;2.00;99.90
28438;DHT22;15667;52.376;9.708;2023-01-29T01:06:39;2.00;99.90
28438;DHT22;15667;52.376;9.708;2023-01-29T01:09:06;2.90;99.90
28438;DHT22;15667;52.376;9.708;2023-01-29T01:11:51;1.70;99.90
28438;DHT22;15667;52.376;9.708;2023-01-29T01:14:24;2.00;99.90
28438;DHT22;15667;52.376;9.708;2023-01-29T01:16:53;2.00;99.90
28438;DHT22;15667;52.376;9.708;2023-01-29T01:19:18;2.00;99.90
28438;DHT22;15667;52.376;9.708;2023-01-29T01:21:44;0.80;99.90
28438;DHT22;15667;52.376;9.708;2023-01-29T01:24:12;1.70;99.90
28438;DHT22;15667;52.376;9.708;2023-01-29T01:26:44;2.70;99.90
28438;DHT22;15667;52.376;9.708;2023-01-29T01:29:10;2.10;99.90
28438;DHT22;15667;52.376;9.708;2023-01-29T01:31:35;2.10;99.90
28438;DHT22;15667;52.376;9.708;2023-01-29T01:34:01;2.10;99.90
28438;DHT22;15667;52.376;9.708;2023-01-29T01:36:27;2.00;99.90
28438;DHT22;15667;52.376;9.708;2023-01-29T01:38:53;2.20;99.90
28438;DHT22;15667;52.376;9.708;2023-01-29T01:41:20;2.10;99.90
28438;DHT22;15667;52.376;9.708;2023-01-29T01:44:00;2.50;99.90
28438;DHT22;15667;52.376;9.708;2023-01-29T01:46:31;2.00;99.90
28438;DHT22;15667;52.376;9.708;2023-01-29T01:49:12;2.30;99.90
28438;DHT22;15667;52.376;9.708;2023-01-29T01:51:43;2.00;99.90
28438;DHT22;15667;52.376;9.708;2023-01-29T01:54:20;2.10;99.90
28438;DHT22;15667;52.376;9.708;2023-01-29T01:56:50;2.10;99.90
28438;DHT22;15667;52.376;9.708;2023-01-29T01:59:20;2.90;99.90
28438;DHT22;15667;52.376;9.708;2023-01-29T02:01:49;2.10;99.90
28438;DHT22;15667;52.376;9.708;2023-01-29T02:04:23;2.70;99.90
28438;DHT22;15667;52.376;9.708;2023-01-29T02:07:12;2.00;99.90
28438;DHT22;15667;52.376;9.708;2023-01-29T02:10:17;2.00;99.90
28438;DHT22;15667;52.376;9.708;2023-01-29T02:12:50;2.00;99.90
28438;DHT22;15667;52.376;9.708;2023-01-29T02:15:16;2.00;99.90
28438;DHT22;15667;52.376;9.708;2023-01-29T02:17:41;1.90;99.90
28438;DHT22;15667;52.376;9.708;2023-01-29T02:20:22;1.90;99.90
28438;DHT22;15667;52.376;9.708;2023-01-29T03:01:41;2.00;99.90
28438;DHT22;15667;52.376;9.708;2023-01-29T03:04:15;2.60;99.90
28438;DHT22;15667;52.376;9.708;2023-01-29T03:07:02;2.00;99.90
28438;DHT22;15667;52.376;9.708;2023-01-29T03:09:40;1.90;99.90
28438;DHT22;15667;52.376;9.708;2023-01-29T03:12:13;1.80;99.90
28438;DHT22;15667;52.376;9.708;2023-01-29T03:15:00;3.10;99.90
28438;DHT22;15667;52.376;9.708;2023-01-29T03:17:54;2.80;99.90
28438;DHT22;15667;52.376;9.708;2023-01-29T03:20:28;1.80;99.90
28438;DHT22;15667;52.376;9.708;2023-01-29T03:23:04;1.80;99.90
28438;DHT22;15667;52.376;9.708;2023-01-29T03:25:33;1.70;99.90
28438;DHT22;15667;52.376;9.708;2023-01-29T03:28:19;1.70;99.90
28438;DHT22;15667;52.376;9.708;2023-01-29T03:31:06;2.00;99.90
28438;DHT22;15667;52.376;9.708;2023-01-29T03:36:41;1.70;99.90
28438;DHT22;15667;52.376;9.708;2023-01-29T03:39:10;1.70;99.90
28438;DHT22;15667;52.376;9.708;2023-01-29T03:41:46;1.70;99.90
28438;DHT22;15667;52.376;9.708;2023-01-29T03:53:07;1.90;99.90
28438;DHT22;15667;52.376;9.708;2023-01-29T03:55:42;1.80;99.90
28438;DHT22;15667;52.376;9.708;2023-01-29T04:03:41;1.80;99.90
28438;DHT22;15667;52.376;9.708;2023-01-29T04:06:12;2.40;99.90
28438;DHT22;15667;52.376;9.708;2023-01-29T04:09:06;1.30;99.90
28438;DHT22;15667;52.376;9.708;2023-01-29T04:11:36;1.90;99.90
28438;DHT22;15667;52.376;9.708;2023-01-29T04:14:03;1.90;99.90
28438;DHT22;15667;52.376;9.708;2023-01-29T04:16:38;1.80;99.90
28438;DHT22;15667;52.376;9.708;2023-01-29T04:19:05;1.90;99.90
28438;DHT22;15667;52.376;9.708;2023-01-29T04:21:32;2.60;99.90
28438;DHT22;15667;52.376;9.708;2023-01-29T04:24:00;1.90;99.90
28438;DHT22;15667;52.376;9.708;2023-01-29T04:37:34;1.90;99.90
28438;DHT22;15667;52.376;9.708;2023-01-29T04:47:52;1.90;99.90
28438;DHT22;15667;52.376;9.708;2023-01-29T04:50:39;2.00;99.90
28438;DHT22;15667;52.376;9.708;2023-01-29T04:56:05;2.00;99.90
28438;DHT22;15667;52.376;9.708;2023-01-29T04:58:39;2.00;99.90
28438;DHT22;15667;52.376;9.708;2023-01-29T05:01:07;2.00;99.90
28438;DHT22;15667;52.376;9.708;2023-01-29T05:03:35;2.10;99.90
28438;DHT22;15667;52.376;9.708;2023-01-29T05:06:03;2.20;99.90
28438;DHT22;15667;52.376;9.708;2023-01-29T05:08:30;1.90;99.90
28438;DHT22;15667;52.376;9.708;2023-01-29T05:10:58;2.20;99.90
28438;DHT22;15667;52.376;9.708;2023-01-29T05:13:25;1.60;99.90
28438;DHT22;15667;52.376;9.708;2023-01-29T05:16:08;2.20;99.90
28438;DHT22;15667;52.376;9.708;2023-01-29T05:18:37;2.10;99.90
28438;DHT22;15667;52.376;9.708;2023-01-29T05:21:05;2.20;99.90
28438;DHT22;15667;52.376;9.708;2023-01-29T05:23:32;2.00;99.90
28438;DHT22;15667;52.376;9.708;2023-01-29T05:25:57;2.20;99.90
28438;DHT22;15667;52.376;9.708;2023-01-29T05:28:23;2.80;99.90
28438;DHT22;15667;52.376;9.708;2023-01-29T05:30:51;2.70;99.90
28438;DHT22;15667;52.376;9.708;2023-01-29T05:35:50;2.10;99.90
28438;DHT22;15667;52.376;9.708;2023-01-29T05:38:20;2.10;99.90
28438;DHT22;15667;52.376;9.708;2023-01-29T05:40:47;2.10;99.90
28438;DHT22;15667;52.376;9.708;2023-01-29T05:43:23;2.80;99.90
28438;DHT22;15667;52.376;9.708;2023-01-29T05:45:53;2.20;99.90
28438;DHT22;15667;52.376;9.708;2023-01-29T05:48:19;2.00;99.90
28438;DHT22;15667;52.376;9.708;2023-01-29T05:50:45;2.10;99.90
28438;DHT22;15667;52.376;9.708;2023-01-29T05:53:11;2.70;99.90
28438;DHT22;15667;52.376;9.708;2023-01-29T05:55:36;2.10;99.90
28438;DHT22;15667;52.376;9.708;2023-01-29T05:58:02;2.00;99.90
28438;DHT22;15667;52.376;9.708;2023-01-29T06:00:28;2.60;99.90
28438;DHT22;15667;52.376;9.708;2023-01-29T06:02:53;2.80;99.90
28438;DHT22;15667;52.376;9.708;2023-01-29T06:05:19;2.10;99.90
28438;DHT22;15667;52.376;9.708;2023-01-29T06:07:45;2.00;99.90
28438;DHT22;15667;52.376;9.708;2023-01-29T06:10:13;2.10;99.90
28438;DHT22;15667;52.376;9.708;2023-01-29T06:12:40;2.40;99.90
28438;DHT22;15667;52.376;9.708;2023-01-29T06:15:07;2.10;99.90
28438;DHT22;15667;52.376;9.708;2023-01-29T06:17:33;2.10;99.90
28438;DHT22;15667;52.376;9.708;2023-01-29T06:19:58;2.10;99.90
28438;DHT22;15667;52.376;9.708;2023-01-29T06:22:24;2.10;99.90
28438;DHT22;15667;52.376;9.708;2023-01-29T06:24:49;2.00;99.90
28438;DHT22;15667;52.376;9.708;2023-01-29T06:27:15;2.10;99.90
28438;DHT22;15667;52.376;9.708;2023-01-29T06:29:41;2.60;99.90
28438;DHT22;15667;52.376;9.708;2023-01-29T06:32:06;2.30;99.90
28438;DHT22;15667;52.376;9.708;2023-01-29T06:34:32;2.10;99.90
28438;DHT22;15667;52.376;9.708;2023-01-29T06:36:58;2.10;99.90
28438;DHT22;15667;52.376;9.708;2023-01-29T06:39:23;2.20;99.90
28438;DHT22;15667;52.376;9.708;2023-01-29T06:41:49;2.10;99.90
28438;DHT22;15667;52.376;9.708;2023-01-29T06:44:15;2.10;99.90
28438;DHT22;15667;52.376;9.708;2023-01-29T06:46:41;1.90;99.90
28438;DHT22;15667;52.376;9.708;2023-01-29T06:49:06;2.20;99.90
28438;DHT22;15667;52.376;9.708;2023-01-29T06:51:32;2.30;99.90
28438;DHT22;15667;52.376;9.708;2023-01-29T06:53:58;2.30;99.90
28438;DHT22;15667;52.376;9.708;2023-01-29T06:56:24;2.30;99.90
28438;DHT22;15667;52.376;9.708;2023-01-29T06:58:50;2.20;99.90
28438;DHT22;15667;52.376;9.708;2023-01-29T07:01:18;2.30;99.90
28438;DHT22;15667;52.376;9.708;2023-01-29T07:03:48;2.70;99.90
28438;DHT22;15667;52.376;9.708;2023-01-29T07:06:15;2.80;99.90
28438;DHT22;15667;52.376;9.708;2023-01-29T07:08:41;2.20;99.90
28438;DHT22;15667;52.376;9.708;2023-01-29T07:11:07;2.30;99.90
28438;DHT22;15667;52.376;9.708;2023-01-29T07:13:33;1.80;99.90
28438;DHT22;15667;52.376;9.708;2023-01-29T07:15:59;2.20;99.90
28438;DHT22;15667;52.376;9.708;2023-01-29T07:18:26;2.80;99.90
28438;DHT22;15667;52.376;9.708;2023-01-29T07:20:52;2.30;99.90
28438;DHT22;15667;52.376;9.708;2023-01-29T07:23:18;2.60;99.90
28438;DHT22;15667;52.376;9.708;2023-01-29T07:25:47;2.30;99.90
28438;DHT22;15667;52.376;9.708;2023-01-29T07:28:18;2.70;99.90
28438;DHT22;15667;52.376;9.708;2023-01-29T07:30:47;2.10;99.90
28438;DHT22;15667;52.376;9.708;2023-01-29T07:33:13;2.00;99.90
28438;DHT22;15667;52.376;9.708;2023-01-29T07:35:41;2.00;99.90
28438;DHT22;15667;52.376;9.708;2023-01-29T07:38:08;1.90;99.90
28438;DHT22;15667;52.376;9.708;2023-01-29T07:40:34;2.30;99.90
28438;DHT22;15667;52.376;9.708;2023-01-29T07:43:02;1.90;99.90
28438;DHT22;15667;52.376;9.708;2023-01-29T07:45:29;1.90;99.90
28438;DHT22;15667;52.376;9.708;2023-01-29T07:47:56;1.90;99.90
28438;DHT22;15667;52.376;9.708;2023-01-29T07:50:24;2.10;99.90
28438;DHT22;15667;52.376;9.708;2023-01-29T07:52:49;2.00;99.90
28438;DHT22;15667;52.376;9.708;2023-01-29T07:55:15;1.90;99.90
28438;DHT22;15667;52.376;9.708;2023-01-29T07:57:42;1.90;99.90
28438;DHT22;15667;52.376;9.708;2023-01-29T08:00:09;2.90;99.90
28438;DHT22;15667;52.376;9.708;2023-01-29T08:02:35;1.90;99.90
28438;DHT22;15667;52.376;9.708;2023-01-29T08:05:01;1.90;99.90
28438;DHT22;15667;52.376;9.708;2023-01-29T08:07:30;1.90;99.90
28438;DHT22;15667;52.376;9.708;2023-01-29T08:09:55;1.90;99.90
28438;DHT22;15667;52.376;9.708;2023-01-29T08:12:21;2.30;99.90
28438;DHT22;15667;52.376;9.708;2023-01-29T08:14:47;2.60;99.90
28438;DHT22;15667;52.376;9.708;2023-01-29T08:17:13;1.80;99.90
28438;DHT22;15667;52.376;9.708;2023-01-29T08:19:39;2.50;99.90
28438;DHT22;15667;52.376;9.708;2023-01-29T08:22:07;1.80;99.90
28438;DHT22;15667;52.376;9.708;2023-01-29T08:28:14;1.90;99.90
28438;DHT22;15667;52.376;9.708;2023-01-29T08:30:52;1.40;99.90
28438;DHT22;15667;52.376;9.708;2023-01-29T08:33:21;2.00;99.90
28438;DHT22;15667;52.376;9.708;2023-01-29T08:35:49;1.80;99.90
28438;DHT22;15667;52.376;9.708;2023-01-29T08:38:18;2.00;99.90
28438;DHT22;15667;52.376;9.708;2023-01-29T08:41:05;2.10;99.90
28438;DHT22;15667;52.376;9.708;2023-01-29T08:43:31;2.00;99.90
28438;DHT22;15667;52.376;9.708;2023-01-29T08:45:56;2.00;99.90
28438;DHT22;15667;52.376;9.708;2023-01-29T08:48:22;2.10;99.90
28438;DHT22;15667;52.376;9.708;2023-01-29T08:50:49;2.30;99.90
28438;DHT22;15667;52.376;9.708;2023-01-29T08:53:18;2.00;99.90
28438;DHT22;15667;52.376;9.708;2023-01-29T08:55:48;1.90;99.90
28438;DHT22;15667;52.376;9.708;2023-01-29T08:58:17;2.30;99.90
28438;DHT22;15667;52.376;9.708;2023-01-29T09:00:43;1.50;99.90
28438;DHT22;15667;52.376;9.708;2023-01-29T09:03:09;2.00;99.90
28438;DHT22;15667;52.376;9.708;2023-01-29T09:05:36;1.90;99.90
28438;DHT22;15667;52.376;9.708;2023-01-29T09:08:02;1.70;99.90
28438;DHT22;15667;52.376;9.708;2023-01-29T09:10:28;2.10;99.90
28438;DHT22;15667;52.376;9.708;2023-01-29T09:12:54;2.90;99.90
28438;DHT22;15667;52.376;9.708;2023-01-29T09:15:19;2.10;99.90
28438;DHT22;15667;52.376;9.708;2023-01-29T09:17:47;2.20;99.90
28438;DHT22;15667;52.376;9.708;2023-01-29T09:20:16;2.50;99.90
28438;DHT22;15667;52.376;9.708;2023-01-29T09:22:42;2.30;99.90
28438;DHT22;15667;52.376;9.708;2023-01-29T09:25:08;2.40;99.90
28438;DHT22;15667;52.376;9.708;2023-01-29T09:31:09;2.40;99.90
28438;DHT22;15667;52.376;9.708;2023-01-29T09:33:35;2.50;99.90
28438;DHT22;15667;52.376;9.708;2023-01-29T09:36:02;2.00;99.90
28438;DHT22;15667;52.376;9.708;2023-01-29T09:38:28;2.60;99.90
28438;DHT22;15667;52.376;9.708;2023-01-29T09:47:35;2.00;99.90
28438;DHT22;15667;52.376;9.708;2023-01-29T09:50:29;3.20;99.90
28438;DHT22;15667;52.376;9.708;2023-01-29T09:55:35;2.70;99.90
28438;DHT22;15667;52.376;9.708;2023-01-29T10:06:50;2.30;99.90
28438;DHT22;15667;52.376;9.708;2023-01-29T10:25:25;2.90;99.90
28438;DHT22;15667;52.376;9.708;2023-01-29T10:27:54;2.90;99.90
28438;DHT22;15667;52.376;9.708;2023-01-29T11:36:35;3.40;99.90
28438;DHT22;15667;52.376;9.708;2023-01-29T11:39:20;3.80;99.90
28438;DHT22;15667;52.376;9.708;2023-01-29T11:45:02;3.40;99.90
28438;DHT22;15667;52.376;9.708;2023-01-29T11:47:31;3.90;99.90
28438;DHT22;15667;52.376;9.708;2023-01-29T11:49:59;3.30;99.90
28438;DHT22;15667;52.376;9.708;2023-01-29T11:52:42;4.20;99.90
28438;DHT22;15667;52.376;9.708;2023-01-29T11:55:17;3.20;99.90
28438;DHT22;15667;52.376;9.708;2023-01-29T11:58:03;3.20;99.90
28438;DHT22;15667;52.376;9.708;2023-01-29T12:00:39;2.60;99.90
28438;DHT22;15667;52.376;9.708;2023-01-29T12:06:07;3.60;99.90
28438;DHT22;15667;52.376;9.708;2023-01-29T12:08:39;3.30;99.90
28438;DHT22;15667;52.376;9.708;2023-01-29T12:11:12;3.40;99.90
28438;DHT22;15667;52.376;9.708;2023-01-29T12:13:38;3.40;99.90
28438;DHT22;15667;52.376;9.708;2023-01-29T12:16:19;3.40;99.90
28438;DHT22;15667;52.376;9.708;2023-01-29T12:19:10;4.20;99.90
28438;DHT22;15667;52.376;9.708;2023-01-29T12:21:46;3.60;99.90
28438;DHT22;15667;52.376;9.708;2023-01-29T12:24:34;3.30;99.90
28438;DHT22;15667;52.376;9.708;2023-01-29T12:27:57;3.40;99.90
28438;DHT22;15667;52.376;9.708;2023-01-29T18:06:10;2.50;99.90
28438;DHT22;15667;52.376;9.708;2023-01-29T18:08:38;2.50;99.90
28438;DHT22;15667;52.376;9.708;2023-01-29T18:11:04;2.50;99.90
28438;DHT22;15667;52.376;9.708;2023-01-29T18:13:30;2.50;99.90
28438;DHT22;15667;52.376;9.708;2023-01-29T18:15:56;2.50;99.90
28438;DHT22;15667;52.376;9.708;2023-01-29T18:18:23;3.40;99.90
28438;DHT22;15667;52.376;9.708;2023-01-29T18:20:49;3.00;99.90
28438;DHT22;15667;52.376;9.708;2023-01-29T18:23:17;1.80;99.90
28438;DHT22;15667;52.376;9.708;2023-01-29T18:25:43;3.60;99.90
28438;DHT22;15667;52.376;9.708;2023-01-29T18:28:16;2.50;99.90
28438;DHT22;15667;52.376;9.708;2023-01-29T18:30:43;2.60;99.90
28438;DHT22;15667;52.376;9.708;2023-01-29T18:35:47;2.70;99.90
28438;DHT22;15667;52.376;9.708;2023-01-29T18:38:13;2.60;99.90
28438;DHT22;15667;52.376;9.708;2023-01-29T18:40:38;2.60;99.90
28438;DHT22;15667;52.376;9.708;2023-01-29T18:43:05;2.70;99.90
28438;DHT22;15667;52.376;9.708;2023-01-29T18:45:34;2.60;99.90
28438;DHT22;15667;52.376;9.708;2023-01-29T18:48:00;2.50;99.90
28438;DHT22;15667;52.376;9.708;2023-01-29T18:50:25;2.60;99.90
28438;DHT22;15667;52.376;9.708;2023-01-29T18:52:52;2.60;99.90
28438;DHT22;15667;52.376;9.708;2023-01-29T18:55:21;3.70;99.90
28438;DHT22;15667;52.376;9.708;2023-01-29T18:57:53;2.40;99.90
28438;DHT22;15667;52.376;9.708;2023-01-29T19:00:20;2.90;99.90
28438;DHT22;15667;52.376;9.708;2023-01-29T19:02:46;2.30;99.90
28438;DHT22;15667;52.376;9.708;2023-01-29T19:05:12;3.40;99.90
28438;DHT22;15667;52.376;9.708;2023-01-29T19:07:38;2.40;99.90
28438;DHT22;15667;52.376;9.708;2023-01-29T19:10:07;2.90;99.90
28438;DHT22;15667;52.376;9.708;2023-01-29T19:12:37;2.40;99.90
28438;DHT22;15667;52.376;9.708;2023-01-29T19:15:06;2.90;99.90
28438;DHT22;15667;52.376;9.708;2023-01-29T19:17:32;2.30;99.90
28438;DHT22;15667;52.376;9.708;2023-01-29T19:19:58;2.30;99.90
28438;DHT22;15667;52.376;9.708;2023-01-29T19:22:27;1.30;99.90
28438;DHT22;15667;52.376;9.708;2023-01-29T19:24:54;3.40;99.90
28438;DHT22;15667;52.376;9.708;2023-01-29T19:27:23;2.60;99.90
28438;DHT22;15667;52.376;9.708;2023-01-29T19:29:50;2.30;99.90
28438;DHT22;15667;52.376;9.708;2023-01-29T19:32:17;3.30;99.90
28438;DHT22;15667;52.376;9.708;2023-01-29T19:34:42;3.00;99.90
28438;DHT22;15667;52.376;9.708;2023-01-29T19:37:10;2.30;99.90
28438;DHT22;15667;52.376;9.708;2023-01-29T19:39:35;2.30;99.90
28438;DHT22;15667;52.376;9.708;2023-01-29T19:42:01;2.30;99.90
28438;DHT22;15667;52.376;9.708;2023-01-29T19:44:27;2.40;99.90
28438;DHT22;15667;52.376;9.708;2023-01-29T19:47:08;2.70;99.90
28438;DHT22;15667;52.376;9.708;2023-01-29T19:49:55;2.50;99.90
28438;DHT22;15667;52.376;9.708;2023-01-29T19:52:49;1.20;99.90
28438;DHT22;15667;52.376;9.708;2023-01-29T19:55:54;2.10;99.90
28438;DHT22;15667;52.376;9.708;2023-01-29T19:58:28;2.50;99.90
28438;DHT22;15667;52.376;9.708;2023-01-29T20:01:11;2.60;99.90
28438;DHT22;15667;52.376;9.708;2023-01-29T20:03:39;2.50;99.90
28438;DHT22;15667;52.376;9.708;2023-01-29T20:06:11;2.60;99.90
28438;DHT22;15667;52.376;9.708;2023-01-29T20:08:36;2.60;99.90
28438;DHT22;15667;52.376;9.708;2023-01-29T20:11:06;3.80;99.90
28438;DHT22;15667;52.376;9.708;2023-01-29T20:13:34;3.50;99.90
28438;DHT22;15667;52.376;9.708;2023-01-29T20:16:00;2.50;99.90
28438;DHT22;15667;52.376;9.708;2023-01-29T20:18:28;3.50;99.90
28438;DHT22;15667;52.376;9.708;2023-01-29T20:21:05;3.60;99.90
28438;DHT22;15667;52.376;9.708;2023-01-29T20:23:32;2.60;99.90
28438;DHT22;15667;52.376;9.708;2023-01-29T20:25:58;2.70;99.90
28438;DHT22;15667;52.376;9.708;2023-01-29T20:28:24;3.40;99.90
28438;DHT22;15667;52.376;9.708;2023-01-29T20:30:50;2.50;99.90
28438;DHT22;15667;52.376;9.708;2023-01-29T20:33:20;3.60;99.90
28438;DHT22;15667;52.376;9.708;2023-01-29T20:35:56;2.60;99.90
28438;DHT22;15667;52.376;9.708;2023-01-29T20:38:22;3.50;99.90
28438;DHT22;15667;52.376;9.708;2023-01-29T20:40:48;2.60;99.90
28438;DHT22;15667;52.376;9.708;2023-01-29T20:43:14;2.70;99.90
28438;DHT22;15667;52.376;9.708;2023-01-29T20:45:40;3.70;99.90
28438;DHT22;15667;52.376;9.708;2023-01-29T20:48:06;3.80;99.90
28438;DHT22;15667;52.376;9.708;2023-01-29T20:50:33;2.50;99.90
28438;DHT22;15667;52.376;9.708;2023-01-29T20:52:59;2.60;99.90
28438;DHT22;15667;52.376;9.708;2023-01-29T20:55:27;3.70;99.90
28438;DHT22;15667;52.376;9.708;2023-01-29T20:57:52;2.70;99.90
28438;DHT22;15667;52.376;9.708;2023-01-29T21:00:18;3.10;99.90
28438;DHT22;15667;52.376;9.708;2023-01-29T21:02:44;2.00;99.90
28438;DHT22;15667;52.376;9.708;2023-01-29T21:05:37;2.10;99.90
28438;DHT22;15667;52.376;9.708;2023-01-29T21:11:48;3.70;99.90
28438;DHT22;15667;52.376;9.708;2023-01-29T21:14:13;3.70;99.90
28438;DHT22;15667;52.376;9.708;2023-01-29T21:16:39;3.90;99.90
28438;DHT22;15667;52.376;9.708;2023-01-29T21:19:05;3.00;99.90
28438;DHT22;15667;52.376;9.708;2023-01-29T21:21:31;3.00;99.90
28438;DHT22;15667;52.376;9.708;2023-01-29T21:24:03;4.10;99.90
28438;DHT22;15667;52.376;9.708;2023-01-29T21:26:29;3.00;99.90
28438;DHT22;15667;52.376;9.708;2023-01-29T21:29:06;3.10;99.90
28438;DHT22;15667;52.376;9.708;2023-01-29T21:31:32;3.20;99.90
28438;DHT22;15667;52.376;9.708;2023-01-29T21:33:58;4.40;99.90
28438;DHT22;15667;52.376;9.708;2023-01-29T21:39:38;2.60;99.90
28438;DHT22;15667;52.376;9.708;2023-01-29T21:42:10;3.10;99.90
28438;DHT22;15667;52.376;9.708;2023-01-29T21:44:57;2.80;99.90
28438;DHT22;15667;52.376;9.708;2023-01-29T21:47:23;3.10;99.90
28438;DHT22;15667;52.376;9.708;2023-01-29T21:49:52;2.70;99.90
28438;DHT22;15667;52.376;9.708;2023-01-29T21:52:18;3.20;99.90
28438;DHT22;15667;52.376;9.708;2023-01-29T21:54:47;3.20;99.90
28438;DHT22;15667;52.376;9.708;2023-01-29T21:57:32;3.30;99.90
28438;DHT22;15667;52.376;9.708;2023-01-29T22:00:01;4.40;99.90
28438;DHT22;15667;52.376;9.708;2023-01-29T22:02:32;4.10;99.90
28438;DHT22;15667;52.376;9.708;2023-01-29T22:05:00;3.40;99.90
28438;DHT22;15667;52.376;9.708;2023-01-29T22:07:28;3.20;99.90
28438;DHT22;15667;52.376;9.708;2023-01-29T22:09:55;3.50;99.90
28438;DHT22;15667;52.376;9.708;2023-01-29T22:12:21;2.90;99.90
28438;DHT22;15667;52.376;9.708;2023-01-29T22:14:47;3.70;99.90
28438;DHT22;15667;52.376;9.708;2023-01-29T22:17:14;3.30;99.90
28438;DHT22;15667;52.376;9.708;2023-01-29T22:19:42;3.30;99.90
28438;DHT22;15667;52.376;9.708;2023-01-29T22:22:11;4.30;99.90
28438;DHT22;15667;52.376;9.708;2023-01-29T22:24:36;4.30;99.90
28438;DHT22;15667;52.376;9.708;2023-01-29T22:27:02;4.40;99.90
28438;DHT22;15667;52.376;9.708;2023-01-29T22:29:30;4.30;99.90
28438;DHT22;15667;52.376;9.708;2023-01-29T22:31:56;3.30;99.90
28438;DHT22;15667;52.376;9.708;2023-01-29T22:34:27;3.30;99.90
28438;DHT22;15667;52.376;9.708;2023-01-29T22:36:56;3.30;99.90
28438;DHT22;15667;52.376;9.708;2023-01-29T22:39:22;4.40;99.90
28438;DHT22;15667;52.376;9.708;2023-01-29T22:41:48;3.30;99.90
28438;DHT22;15667;52.376;9.708;2023-01-29T22:44:14;4.20;99.90
28438;DHT22;15667;52.376;9.708;2023-01-29T22:46:40;3.30;99.90
28438;DHT22;15667;52.376;9.708;2023-01-29T23:20:11;3.50;99.90
28438;DHT22;15667;52.376;9.708;2023-01-29T23:22:37;3.40;99.90
28438;DHT22;15667;52.376;9.708;2023-01-29T23:25:04;4.70;99.90
28438;DHT22;15667;52.376;9.708;2023-01-29T23:27:30;2.50;99.90
28438;DHT22;15667;52.376;9.708;2023-01-29T23:29:56;2.60;99.90
28438;DHT22;15667;52.376;9.708;2023-01-29T23:32:22;3.40;99.90
28438;DHT22;15667;52.376;9.708;2023-01-29T23:34:48;4.00;99.90
28438;DHT22;15667;52.376;9.708;2023-01-29T23:37:15;3.50;99.90
28438;DHT22;15667;52.376;9.708;2023-01-29T23:39:40;3.90;99.90
28438;DHT22;15667;52.376;9.708;2023-01-29T23:42:06;3.60;99.90
28438;DHT22;15667;52.376;9.708;2023-01-29T23:44:32;2.70;99.90
28438;DHT22;15667;52.376;9.708;2023-01-29T23:46:58;4.60;99.90
28438;DHT22;15667;52.376;9.708;2023-01-29T23:49:23;3.90;99.90
28438;DHT22;15667;52.376;9.708;2023-01-29T23:51:50;3.60;99.90
28438;DHT22;15667;52.376;9.708;2023-01-29T23:54:16;3.60;99.90
28438;DHT22;15667;52.376;9.708;2023-01-29T23:56:42;3.60;99.90
28438;DHT22;15667;52.376;9.708;2023-01-29T23:59:09;4.20;99.90
